sensor_id;sensor_type;location;lat;lon;timestamp;P1;durP1;ratioP1;P2;durP2;ratioP2
1414;SDS011;702;49.466;11.086;2022-12-18T00:01:14;34.00;;;18.10;;
1414;SDS011;702;49.466;11.086;2022-12-18T00:03:43;34.40;;;17.33;;
1414;SDS011;702;49.466;11.086;2022-12-18T00:06:10;38.25;;;19.25;;
1414;SDS011;702;49.466;11.086;2022-12-18T00:08:38;31.25;;;17.42;;
1414;SDS011;702;49.466;11.086;2022-12-18T00:11:06;34.00;;;17.55;;
1414;SDS011;702;49.466;11.086;2022-12-18T00:13:38;31.10;;;18.77;;
1414;SDS011;702;49.466;11.086;2022-12-18T00:16:07;30.60;;;16.00;;
1414;SDS011;702;49.466;11.086;2022-12-18T00:18:37;34.03;;;18.40;;
1414;SDS011;702;49.466;11.086;2022-12-18T00:21:05;31.45;;;16.58;;
1414;SDS011;702;49.466;11.086;2022-12-18T00:23:34;33.20;;;18.50;;
1414;SDS011;702;49.466;11.086;2022-12-18T00:26:03;30.65;;;17.17;;
1414;SDS011;702;49.466;11.086;2022-12-18T00:28:33;29.10;;;17.10;;
1414;SDS011;702;49.466;11.086;2022-12-18T00:31:02;34.83;;;19.10;;
1414;SDS011;702;49.466;11.086;2022-12-18T00:33:31;34.55;;;17.85;;
1414;SDS011;702;49.466;11.086;2022-12-18T00:36:00;30.80;;;16.27;;
1414;SDS011;702;49.466;11.086;2022-12-18T00:38:28;33.70;;;16.30;;
1414;SDS011;702;49.466;11.086;2022-12-18T00:40:55;29.27;;;15.50;;
1414;SDS011;702;49.466;11.086;2022-12-18T00:43:22;39.83;;;16.80;;
1414;SDS011;702;49.466;11.086;2022-12-18T00:45:49;23.80;;;16.17;;
1414;SDS011;702;49.466;11.086;2022-12-18T00:48:17;28.70;;;16.50;;
1414;SDS011;702;49.466;11.086;2022-12-18T00:50:47;26.30;;;16.50;;
1414;SDS011;702;49.466;11.086;2022-12-18T00:53:14;30.90;;;17.50;;
1414;SDS011;702;49.466;11.086;2022-12-18T00:55:42;26.63;;;15.33;;
1414;SDS011;702;49.466;11.086;2022-12-18T00:58:10;33.30;;;17.27;;
1414;SDS011;702;49.466;11.086;2022-12-18T01:00:38;26.02;;;14.63;;
1414;SDS011;702;49.466;11.086;2022-12-18T01:03:06;30.45;;;15.85;;
1414;SDS011;702;49.466;11.086;2022-12-18T01:05:38;29.80;;;15.83;;
1414;SDS011;702;49.466;11.086;2022-12-18T01:08:06;26.52;;;14.93;;
1414;SDS011;702;49.466;11.086;2022-12-18T01:10:33;31.00;;;16.58;;
1414;SDS011;702;49.466;11.086;2022-12-18T01:13:01;31.77;;;16.77;;
1414;SDS011;702;49.466;11.086;2022-12-18T01:15:28;32.83;;;17.05;;
1414;SDS011;702;49.466;11.086;2022-12-18T01:17:55;33.10;;;18.10;;
1414;SDS011;702;49.466;11.086;2022-12-18T01:20:22;30.60;;;17.73;;
1414;SDS011;702;49.466;11.086;2022-12-18T01:22:51;34.37;;;19.47;;
1414;SDS011;702;49.466;11.086;2022-12-18T01:25:18;29.90;;;18.07;;
1414;SDS011;702;49.466;11.086;2022-12-18T01:27:45;29.45;;;17.45;;
1414;SDS011;702;49.466;11.086;2022-12-18T01:30:12;33.58;;;17.52;;
1414;SDS011;702;49.466;11.086;2022-12-18T01:32:40;32.47;;;17.30;;
1414;SDS011;702;49.466;11.086;2022-12-18T01:35:07;35.17;;;17.92;;
1414;SDS011;702;49.466;11.086;2022-12-18T01:37:35;36.30;;;18.97;;
1414;SDS011;702;49.466;11.086;2022-12-18T01:40:04;35.00;;;20.33;;
1414;SDS011;702;49.466;11.086;2022-12-18T01:42:33;43.35;;;23.83;;
1414;SDS011;702;49.466;11.086;2022-12-18T01:45:03;36.10;;;21.03;;
1414;SDS011;702;49.466;11.086;2022-12-18T01:47:35;33.80;;;20.77;;
1414;SDS011;702;49.466;11.086;2022-12-18T01:50:07;44.23;;;21.97;;
1414;SDS011;702;49.466;11.086;2022-12-18T01:52:38;36.65;;;21.45;;
1414;SDS011;702;49.466;11.086;2022-12-18T01:55:09;45.90;;;22.40;;
1414;SDS011;702;49.466;11.086;2022-12-18T01:57:37;40.63;;;20.83;;
1414;SDS011;702;49.466;11.086;2022-12-18T02:00:08;37.75;;;21.70;;
1414;SDS011;702;49.466;11.086;2022-12-18T02:02:39;41.55;;;23.50;;
1414;SDS011;702;49.466;11.086;2022-12-18T02:05:07;42.20;;;23.53;;
1414;SDS011;702;49.466;11.086;2022-12-18T02:07:39;46.08;;;24.23;;
1414;SDS011;702;49.466;11.086;2022-12-18T02:10:23;49.93;;;23.47;;
1414;SDS011;702;49.466;11.086;2022-12-18T02:12:56;41.77;;;22.07;;
1414;SDS011;702;49.466;11.086;2022-12-18T02:15:33;42.67;;;25.52;;
1414;SDS011;702;49.466;11.086;2022-12-18T02:18:08;41.40;;;22.70;;
1414;SDS011;702;49.466;11.086;2022-12-18T02:20:40;48.03;;;24.90;;
1414;SDS011;702;49.466;11.086;2022-12-18T02:23:13;50.33;;;26.40;;
1414;SDS011;702;49.466;11.086;2022-12-18T02:26:02;39.90;;;21.77;;
1414;SDS011;702;49.466;11.086;2022-12-18T02:28:40;41.75;;;22.90;;
1414;SDS011;702;49.466;11.086;2022-12-18T02:31:11;33.45;;;20.65;;
1414;SDS011;702;49.466;11.086;2022-12-18T02:33:43;43.65;;;21.85;;
1414;SDS011;702;49.466;11.086;2022-12-18T02:36:12;46.30;;;21.65;;
1414;SDS011;702;49.466;11.086;2022-12-18T02:38:41;48.10;;;22.80;;
1414;SDS011;702;49.466;11.086;2022-12-18T02:41:12;47.08;;;21.00;;
1414;SDS011;702;49.466;11.086;2022-12-18T02:43:41;34.72;;;16.80;;
1414;SDS011;702;49.466;11.086;2022-12-18T02:46:25;47.90;;;23.50;;
1414;SDS011;702;49.466;11.086;2022-12-18T02:49:01;50.42;;;24.92;;
1414;SDS011;702;49.466;11.086;2022-12-18T02:51:40;46.07;;;23.53;;
1414;SDS011;702;49.466;11.086;2022-12-18T02:54:20;40.40;;;22.80;;
1414;SDS011;702;49.466;11.086;2022-12-18T02:57:05;33.70;;;15.10;;
1414;SDS011;702;49.466;11.086;2022-12-18T02:59:45;47.93;;;23.80;;
1414;SDS011;702;49.466;11.086;2022-12-18T03:02:23;45.27;;;21.03;;
1414;SDS011;702;49.466;11.086;2022-12-18T03:04:55;49.43;;;22.40;;
1414;SDS011;702;49.466;11.086;2022-12-18T03:07:33;49.37;;;23.03;;
1414;SDS011;702;49.466;11.086;2022-12-18T03:10:05;46.40;;;22.73;;
1414;SDS011;702;49.466;11.086;2022-12-18T03:12:37;62.85;;;26.92;;
1414;SDS011;702;49.466;11.086;2022-12-18T03:15:11;49.35;;;25.15;;
1414;SDS011;702;49.466;11.086;2022-12-18T03:17:45;47.37;;;23.20;;
1414;SDS011;702;49.466;11.086;2022-12-18T03:20:26;42.30;;;21.67;;
1414;SDS011;702;49.466;11.086;2022-12-18T03:22:59;47.23;;;21.33;;
1414;SDS011;702;49.466;11.086;2022-12-18T03:25:34;53.25;;;22.45;;
1414;SDS011;702;49.466;11.086;2022-12-18T03:28:08;48.27;;;22.60;;
1414;SDS011;702;49.466;11.086;2022-12-18T03:30:41;49.30;;;23.30;;
1414;SDS011;702;49.466;11.086;2022-12-18T03:33:14;42.73;;;21.23;;
1414;SDS011;702;49.466;11.086;2022-12-18T03:35:46;46.43;;;23.03;;
1414;SDS011;702;49.466;11.086;2022-12-18T03:38:13;45.23;;;23.37;;
1414;SDS011;702;49.466;11.086;2022-12-18T03:40:44;44.90;;;21.52;;
1414;SDS011;702;49.466;11.086;2022-12-18T03:43:24;40.07;;;20.17;;
1414;SDS011;702;49.466;11.086;2022-12-18T03:46:02;40.87;;;20.93;;
1414;SDS011;702;49.466;11.086;2022-12-18T03:48:36;38.07;;;20.50;;
1414;SDS011;702;49.466;11.086;2022-12-18T03:51:09;48.50;;;23.07;;
1414;SDS011;702;49.466;11.086;2022-12-18T03:53:43;43.53;;;21.70;;
1414;SDS011;702;49.466;11.086;2022-12-18T03:56:17;45.50;;;19.47;;
1414;SDS011;702;49.466;11.086;2022-12-18T03:58:49;39.17;;;18.43;;
1414;SDS011;702;49.466;11.086;2022-12-18T04:01:19;42.03;;;20.63;;
1414;SDS011;702;49.466;11.086;2022-12-18T04:03:52;40.00;;;19.90;;
1414;SDS011;702;49.466;11.086;2022-12-18T04:06:20;43.03;;;21.73;;
1414;SDS011;702;49.466;11.086;2022-12-18T04:08:48;45.17;;;21.60;;
1414;SDS011;702;49.466;11.086;2022-12-18T04:11:15;46.10;;;23.80;;
1414;SDS011;702;49.466;11.086;2022-12-18T04:13:43;49.37;;;22.37;;
1414;SDS011;702;49.466;11.086;2022-12-18T04:16:11;40.40;;;21.40;;
1414;SDS011;702;49.466;11.086;2022-12-18T04:18:39;39.50;;;20.35;;
1414;SDS011;702;49.466;11.086;2022-12-18T04:21:06;41.20;;;19.10;;
1414;SDS011;702;49.466;11.086;2022-12-18T04:23:34;42.03;;;19.47;;
1414;SDS011;702;49.466;11.086;2022-12-18T04:26:01;48.57;;;21.33;;
1414;SDS011;702;49.466;11.086;2022-12-18T04:28:28;38.87;;;19.13;;
1414;SDS011;702;49.466;11.086;2022-12-18T04:30:55;41.30;;;18.25;;
1414;SDS011;702;49.466;11.086;2022-12-18T04:33:24;41.83;;;18.97;;
1414;SDS011;702;49.466;11.086;2022-12-18T04:35:51;38.70;;;19.90;;
1414;SDS011;702;49.466;11.086;2022-12-18T04:38:18;42.00;;;21.40;;
1414;SDS011;702;49.466;11.086;2022-12-18T04:40:46;34.10;;;18.20;;
1414;SDS011;702;49.466;11.086;2022-12-18T04:43:13;35.70;;;17.90;;
1414;SDS011;702;49.466;11.086;2022-12-18T04:45:40;38.87;;;17.80;;
1414;SDS011;702;49.466;11.086;2022-12-18T04:48:08;38.30;;;18.50;;
1414;SDS011;702;49.466;11.086;2022-12-18T04:50:36;39.27;;;19.20;;
1414;SDS011;702;49.466;11.086;2022-12-18T04:53:04;38.90;;;21.73;;
1414;SDS011;702;49.466;11.086;2022-12-18T04:55:31;42.20;;;19.83;;
1414;SDS011;702;49.466;11.086;2022-12-18T04:57:58;34.90;;;17.70;;
1414;SDS011;702;49.466;11.086;2022-12-18T05:00:26;38.87;;;18.77;;
1414;SDS011;702;49.466;11.086;2022-12-18T05:02:53;32.80;;;15.47;;
1414;SDS011;702;49.466;11.086;2022-12-18T05:05:20;40.40;;;17.80;;
1414;SDS011;702;49.466;11.086;2022-12-18T05:07:49;31.67;;;18.60;;
1414;SDS011;702;49.466;11.086;2022-12-18T05:10:16;27.63;;;15.80;;
1414;SDS011;702;49.466;11.086;2022-12-18T05:12:43;47.63;;;20.77;;
1414;SDS011;702;49.466;11.086;2022-12-18T05:15:24;36.37;;;17.97;;
1414;SDS011;702;49.466;11.086;2022-12-18T05:17:54;31.23;;;16.53;;
1414;SDS011;702;49.466;11.086;2022-12-18T05:20:22;34.40;;;16.80;;
1414;SDS011;702;49.466;11.086;2022-12-18T05:22:51;30.60;;;16.30;;
1414;SDS011;702;49.466;11.086;2022-12-18T05:25:18;36.47;;;18.60;;
1414;SDS011;702;49.466;11.086;2022-12-18T05:27:47;43.53;;;17.87;;
1414;SDS011;702;49.466;11.086;2022-12-18T05:30:14;37.30;;;18.63;;
1414;SDS011;702;49.466;11.086;2022-12-18T05:32:42;33.77;;;17.37;;
1414;SDS011;702;49.466;11.086;2022-12-18T05:35:10;37.47;;;17.03;;
1414;SDS011;702;49.466;11.086;2022-12-18T05:37:37;38.87;;;17.90;;
1414;SDS011;702;49.466;11.086;2022-12-18T05:40:07;33.10;;;18.17;;
1414;SDS011;702;49.466;11.086;2022-12-18T05:42:35;40.00;;;16.83;;
1414;SDS011;702;49.466;11.086;2022-12-18T05:45:03;33.47;;;16.97;;
1414;SDS011;702;49.466;11.086;2022-12-18T05:47:31;39.63;;;18.93;;
1414;SDS011;702;49.466;11.086;2022-12-18T05:49:58;36.63;;;17.33;;
1414;SDS011;702;49.466;11.086;2022-12-18T05:52:26;41.27;;;18.00;;
1414;SDS011;702;49.466;11.086;2022-12-18T05:54:53;36.73;;;18.50;;
1414;SDS011;702;49.466;11.086;2022-12-18T05:57:21;42.57;;;20.07;;
1414;SDS011;702;49.466;11.086;2022-12-18T05:59:49;33.30;;;18.20;;
1414;SDS011;702;49.466;11.086;2022-12-18T06:02:16;39.17;;;16.90;;
1414;SDS011;702;49.466;11.086;2022-12-18T06:04:43;36.37;;;18.57;;
1414;SDS011;702;49.466;11.086;2022-12-18T06:07:11;35.70;;;17.57;;
1414;SDS011;702;49.466;11.086;2022-12-18T06:09:38;34.60;;;16.70;;
1414;SDS011;702;49.466;11.086;2022-12-18T06:12:05;31.10;;;16.73;;
1414;SDS011;702;49.466;11.086;2022-12-18T06:14:34;43.10;;;20.23;;
1414;SDS011;702;49.466;11.086;2022-12-18T06:17:01;45.57;;;20.97;;
1414;SDS011;702;49.466;11.086;2022-12-18T06:19:28;40.22;;;17.17;;
1414;SDS011;702;49.466;11.086;2022-12-18T06:21:56;34.00;;;17.77;;
1414;SDS011;702;49.466;11.086;2022-12-18T06:24:24;43.53;;;18.43;;
1414;SDS011;702;49.466;11.086;2022-12-18T06:26:51;36.07;;;17.20;;
1414;SDS011;702;49.466;11.086;2022-12-18T06:29:19;37.83;;;19.03;;
1414;SDS011;702;49.466;11.086;2022-12-18T06:31:47;30.27;;;15.10;;
1414;SDS011;702;49.466;11.086;2022-12-18T06:34:14;34.70;;;16.67;;
1414;SDS011;702;49.466;11.086;2022-12-18T06:36:42;38.30;;;18.10;;
1414;SDS011;702;49.466;11.086;2022-12-18T06:39:09;41.70;;;18.60;;
1414;SDS011;702;49.466;11.086;2022-12-18T06:41:36;38.05;;;17.80;;
1414;SDS011;702;49.466;11.086;2022-12-18T06:44:03;35.77;;;17.27;;
1414;SDS011;702;49.466;11.086;2022-12-18T06:46:30;29.70;;;14.20;;
1414;SDS011;702;49.466;11.086;2022-12-18T06:49:00;37.53;;;18.67;;
1414;SDS011;702;49.466;11.086;2022-12-18T06:51:27;39.03;;;17.33;;
1414;SDS011;702;49.466;11.086;2022-12-18T06:53:54;37.97;;;17.37;;
1414;SDS011;702;49.466;11.086;2022-12-18T06:56:21;33.90;;;16.30;;
1414;SDS011;702;49.466;11.086;2022-12-18T06:58:49;38.33;;;17.50;;
1414;SDS011;702;49.466;11.086;2022-12-18T07:01:16;40.45;;;17.65;;
1414;SDS011;702;49.466;11.086;2022-12-18T07:03:43;33.97;;;15.77;;
1414;SDS011;702;49.466;11.086;2022-12-18T07:06:15;38.93;;;18.23;;
1414;SDS011;702;49.466;11.086;2022-12-18T07:08:45;37.17;;;19.70;;
1414;SDS011;702;49.466;11.086;2022-12-18T07:11:13;41.83;;;18.70;;
1414;SDS011;702;49.466;11.086;2022-12-18T07:13:41;38.67;;;17.83;;
1414;SDS011;702;49.466;11.086;2022-12-18T07:16:10;28.40;;;15.40;;
1414;SDS011;702;49.466;11.086;2022-12-18T07:18:40;37.37;;;16.90;;
1414;SDS011;702;49.466;11.086;2022-12-18T07:21:10;34.93;;;16.80;;
1414;SDS011;702;49.466;11.086;2022-12-18T07:23:41;34.93;;;19.03;;
1414;SDS011;702;49.466;11.086;2022-12-18T07:26:09;32.87;;;16.57;;
1414;SDS011;702;49.466;11.086;2022-12-18T07:28:39;45.83;;;17.60;;
1414;SDS011;702;49.466;11.086;2022-12-18T07:31:08;38.07;;;17.50;;
1414;SDS011;702;49.466;11.086;2022-12-18T07:33:38;37.70;;;17.37;;
1414;SDS011;702;49.466;11.086;2022-12-18T07:36:06;37.93;;;15.93;;
1414;SDS011;702;49.466;11.086;2022-12-18T07:38:35;42.03;;;18.93;;
1414;SDS011;702;49.466;11.086;2022-12-18T07:41:05;46.67;;;20.57;;
1414;SDS011;702;49.466;11.086;2022-12-18T07:43:36;29.20;;;16.20;;
1414;SDS011;702;49.466;11.086;2022-12-18T07:46:04;36.13;;;19.00;;
1414;SDS011;702;49.466;11.086;2022-12-18T07:48:33;33.97;;;17.97;;
1414;SDS011;702;49.466;11.086;2022-12-18T07:51:00;39.60;;;17.87;;
1414;SDS011;702;49.466;11.086;2022-12-18T07:53:29;38.40;;;18.50;;
1414;SDS011;702;49.466;11.086;2022-12-18T07:55:57;33.27;;;16.57;;
1414;SDS011;702;49.466;11.086;2022-12-18T07:58:26;37.87;;;17.90;;
1414;SDS011;702;49.466;11.086;2022-12-18T08:00:54;41.97;;;19.40;;
1414;SDS011;702;49.466;11.086;2022-12-18T08:03:29;36.83;;;19.07;;
1414;SDS011;702;49.466;11.086;2022-12-18T08:05:58;33.93;;;17.10;;
1414;SDS011;702;49.466;11.086;2022-12-18T08:08:26;37.13;;;18.43;;
1414;SDS011;702;49.466;11.086;2022-12-18T08:10:53;33.73;;;18.60;;
1414;SDS011;702;49.466;11.086;2022-12-18T08:13:20;33.73;;;16.90;;
1414;SDS011;702;49.466;11.086;2022-12-18T08:15:56;32.93;;;17.33;;
1414;SDS011;702;49.466;11.086;2022-12-18T08:18:24;40.27;;;19.47;;
1414;SDS011;702;49.466;11.086;2022-12-18T08:20:51;32.43;;;16.37;;
1414;SDS011;702;49.466;11.086;2022-12-18T08:23:18;35.53;;;18.37;;
1414;SDS011;702;49.466;11.086;2022-12-18T08:25:46;36.80;;;18.27;;
1414;SDS011;702;49.466;11.086;2022-12-18T08:28:13;32.77;;;16.57;;
1414;SDS011;702;49.466;11.086;2022-12-18T08:30:40;37.83;;;19.13;;
1414;SDS011;702;49.466;11.086;2022-12-18T08:33:10;40.03;;;18.23;;
1414;SDS011;702;49.466;11.086;2022-12-18T08:35:38;35.03;;;18.60;;
1414;SDS011;702;49.466;11.086;2022-12-18T08:38:05;37.47;;;18.40;;
1414;SDS011;702;49.466;11.086;2022-12-18T08:40:32;39.77;;;19.17;;
1414;SDS011;702;49.466;11.086;2022-12-18T08:42:59;34.83;;;17.87;;
1414;SDS011;702;49.466;11.086;2022-12-18T08:45:44;37.17;;;17.30;;
1414;SDS011;702;49.466;11.086;2022-12-18T08:48:13;33.00;;;16.90;;
1414;SDS011;702;49.466;11.086;2022-12-18T08:50:40;30.57;;;16.10;;
1414;SDS011;702;49.466;11.086;2022-12-18T08:53:07;41.20;;;17.13;;
1414;SDS011;702;49.466;11.086;2022-12-18T08:55:35;36.17;;;17.30;;
1414;SDS011;702;49.466;11.086;2022-12-18T08:58:02;32.20;;;16.70;;
1414;SDS011;702;49.466;11.086;2022-12-18T09:00:29;32.90;;;15.93;;
1414;SDS011;702;49.466;11.086;2022-12-18T09:02:59;35.80;;;18.40;;
1414;SDS011;702;49.466;11.086;2022-12-18T09:05:28;35.70;;;18.27;;
1414;SDS011;702;49.466;11.086;2022-12-18T09:07:56;32.07;;;16.37;;
1414;SDS011;702;49.466;11.086;2022-12-18T09:10:23;29.37;;;16.00;;
1414;SDS011;702;49.466;11.086;2022-12-18T09:12:50;31.60;;;15.30;;
1414;SDS011;702;49.466;11.086;2022-12-18T09:15:17;29.30;;;15.03;;
1414;SDS011;702;49.466;11.086;2022-12-18T09:17:44;30.80;;;17.87;;
1414;SDS011;702;49.466;11.086;2022-12-18T09:20:13;36.40;;;17.33;;
1414;SDS011;702;49.466;11.086;2022-12-18T09:22:41;31.40;;;15.67;;
1414;SDS011;702;49.466;11.086;2022-12-18T09:25:09;27.10;;;15.87;;
1414;SDS011;702;49.466;11.086;2022-12-18T09:27:36;30.83;;;15.30;;
1414;SDS011;702;49.466;11.086;2022-12-18T09:30:04;32.83;;;15.37;;
1414;SDS011;702;49.466;11.086;2022-12-18T09:32:34;24.03;;;14.33;;
1414;SDS011;702;49.466;11.086;2022-12-18T09:35:01;30.77;;;16.20;;
1414;SDS011;702;49.466;11.086;2022-12-18T09:37:28;32.17;;;16.33;;
1414;SDS011;702;49.466;11.086;2022-12-18T09:39:56;29.33;;;15.70;;
1414;SDS011;702;49.466;11.086;2022-12-18T09:42:23;24.60;;;14.50;;
1414;SDS011;702;49.466;11.086;2022-12-18T09:44:52;29.67;;;16.13;;
1414;SDS011;702;49.466;11.086;2022-12-18T09:47:21;28.37;;;15.40;;
1414;SDS011;702;49.466;11.086;2022-12-18T09:49:55;29.47;;;15.90;;
1414;SDS011;702;49.466;11.086;2022-12-18T09:52:26;24.57;;;14.37;;
1414;SDS011;702;49.466;11.086;2022-12-18T09:55:00;28.80;;;14.93;;
1414;SDS011;702;49.466;11.086;2022-12-18T09:57:33;30.57;;;16.10;;
1414;SDS011;702;49.466;11.086;2022-12-18T10:00:09;29.13;;;15.60;;
1414;SDS011;702;49.466;11.086;2022-12-18T10:02:46;25.27;;;14.00;;
1414;SDS011;702;49.466;11.086;2022-12-18T10:05:14;25.63;;;15.00;;
1414;SDS011;702;49.466;11.086;2022-12-18T10:07:47;27.43;;;15.20;;
1414;SDS011;702;49.466;11.086;2022-12-18T10:10:26;21.90;;;11.50;;
1414;SDS011;702;49.466;11.086;2022-12-18T10:13:02;32.50;;;16.70;;
1414;SDS011;702;49.466;11.086;2022-12-18T10:15:45;26.33;;;15.40;;
1414;SDS011;702;49.466;11.086;2022-12-18T10:18:30;30.67;;;14.87;;
1414;SDS011;702;49.466;11.086;2022-12-18T10:21:16;20.90;;;13.63;;
1414;SDS011;702;49.466;11.086;2022-12-18T10:23:48;25.77;;;14.40;;
1414;SDS011;702;49.466;11.086;2022-12-18T10:26:26;25.10;;;13.87;;
1414;SDS011;702;49.466;11.086;2022-12-18T10:28:53;30.87;;;13.90;;
1414;SDS011;702;49.466;11.086;2022-12-18T10:31:23;27.20;;;15.33;;
1414;SDS011;702;49.466;11.086;2022-12-18T10:33:51;25.67;;;13.50;;
1414;SDS011;702;49.466;11.086;2022-12-18T10:36:20;29.60;;;16.83;;
1414;SDS011;702;49.466;11.086;2022-12-18T10:38:48;29.70;;;16.50;;
1414;SDS011;702;49.466;11.086;2022-12-18T10:41:24;29.33;;;15.40;;
1414;SDS011;702;49.466;11.086;2022-12-18T10:46:43;26.73;;;14.00;;
1414;SDS011;702;49.466;11.086;2022-12-18T10:49:21;31.63;;;15.73;;
1414;SDS011;702;49.466;11.086;2022-12-18T10:52:03;28.67;;;13.67;;
1414;SDS011;702;49.466;11.086;2022-12-18T10:54:33;30.77;;;15.50;;
1414;SDS011;702;49.466;11.086;2022-12-18T10:57:17;28.90;;;14.93;;
1414;SDS011;702;49.466;11.086;2022-12-18T10:59:59;31.53;;;15.47;;
1414;SDS011;702;49.466;11.086;2022-12-18T11:02:47;26.30;;;13.97;;
1414;SDS011;702;49.466;11.086;2022-12-18T11:05:24;29.50;;;17.07;;
1414;SDS011;702;49.466;11.086;2022-12-18T11:07:54;35.67;;;16.80;;
1414;SDS011;702;49.466;11.086;2022-12-18T11:10:23;25.20;;;13.47;;
1414;SDS011;702;49.466;11.086;2022-12-18T11:12:57;29.17;;;15.43;;
1414;SDS011;702;49.466;11.086;2022-12-18T11:15:43;36.07;;;17.13;;
1414;SDS011;702;49.466;11.086;2022-12-18T11:18:16;33.10;;;15.67;;
1414;SDS011;702;49.466;11.086;2022-12-18T11:20:50;28.57;;;15.10;;
1414;SDS011;702;49.466;11.086;2022-12-18T11:23:18;29.70;;;14.70;;
1414;SDS011;702;49.466;11.086;2022-12-18T11:25:56;32.97;;;16.03;;
1414;SDS011;702;49.466;11.086;2022-12-18T11:28:27;23.90;;;14.30;;
1414;SDS011;702;49.466;11.086;2022-12-18T11:31:09;32.30;;;16.10;;
1414;SDS011;702;49.466;11.086;2022-12-18T11:33:50;35.10;;;17.00;;
1414;SDS011;702;49.466;11.086;2022-12-18T11:36:26;28.50;;;16.60;;
1414;SDS011;702;49.466;11.086;2022-12-18T11:38:59;30.23;;;16.40;;
1414;SDS011;702;49.466;11.086;2022-12-18T11:41:37;28.80;;;16.90;;
1414;SDS011;702;49.466;11.086;2022-12-18T11:44:34;31.90;;;17.40;;
1414;SDS011;702;49.466;11.086;2022-12-18T11:47:09;35.80;;;17.77;;
1414;SDS011;702;49.466;11.086;2022-12-18T11:49:47;31.10;;;15.70;;
1414;SDS011;702;49.466;11.086;2022-12-18T11:52:16;31.93;;;17.67;;
1414;SDS011;702;49.466;11.086;2022-12-18T11:54:50;30.40;;;16.37;;
1414;SDS011;702;49.466;11.086;2022-12-18T11:57:23;34.83;;;17.20;;
1414;SDS011;702;49.466;11.086;2022-12-18T12:00:03;28.77;;;16.43;;
1414;SDS011;702;49.466;11.086;2022-12-18T12:03:00;28.50;;;16.50;;
1414;SDS011;702;49.466;11.086;2022-12-18T12:05:48;29.83;;;15.23;;
1414;SDS011;702;49.466;11.086;2022-12-18T12:08:29;31.03;;;15.20;;
1414;SDS011;702;49.466;11.086;2022-12-18T12:11:09;29.70;;;15.90;;
1414;SDS011;702;49.466;11.086;2022-12-18T12:13:48;30.90;;;15.87;;
1414;SDS011;702;49.466;11.086;2022-12-18T12:16:29;27.87;;;17.10;;
1414;SDS011;702;49.466;11.086;2022-12-18T12:19:08;30.37;;;16.67;;
1414;SDS011;702;49.466;11.086;2022-12-18T12:21:52;31.90;;;15.70;;
1414;SDS011;702;49.466;11.086;2022-12-18T12:24:28;33.40;;;16.83;;
1414;SDS011;702;49.466;11.086;2022-12-18T12:27:11;32.87;;;15.87;;
1414;SDS011;702;49.466;11.086;2022-12-18T12:29:48;31.60;;;16.50;;
1414;SDS011;702;49.466;11.086;2022-12-18T12:32:32;37.67;;;17.67;;
1414;SDS011;702;49.466;11.086;2022-12-18T12:35:20;32.87;;;17.23;;
1414;SDS011;702;49.466;11.086;2022-12-18T12:38:00;30.30;;;16.20;;
1414;SDS011;702;49.466;11.086;2022-12-18T12:40:35;27.97;;;13.43;;
1414;SDS011;702;49.466;11.086;2022-12-18T12:43:11;31.47;;;16.47;;
1414;SDS011;702;49.466;11.086;2022-12-18T12:45:48;24.33;;;14.10;;
1414;SDS011;702;49.466;11.086;2022-12-18T12:48:26;31.40;;;16.97;;
1414;SDS011;702;49.466;11.086;2022-12-18T12:51:04;33.60;;;17.93;;
1414;SDS011;702;49.466;11.086;2022-12-18T12:53:38;27.50;;;16.00;;
1414;SDS011;702;49.466;11.086;2022-12-18T12:56:06;27.53;;;15.40;;
1414;SDS011;702;49.466;11.086;2022-12-18T12:58:38;34.13;;;17.80;;
1414;SDS011;702;49.466;11.086;2022-12-18T13:01:18;36.57;;;18.10;;
1414;SDS011;702;49.466;11.086;2022-12-18T13:03:58;25.40;;;14.53;;
1414;SDS011;702;49.466;11.086;2022-12-18T13:06:37;29.70;;;16.87;;
1414;SDS011;702;49.466;11.086;2022-12-18T13:09:11;29.73;;;16.80;;
1414;SDS011;702;49.466;11.086;2022-12-18T13:11:39;28.07;;;15.40;;
1414;SDS011;702;49.466;11.086;2022-12-18T13:14:27;30.10;;;15.87;;
1414;SDS011;702;49.466;11.086;2022-12-18T13:17:17;37.23;;;17.30;;
1414;SDS011;702;49.466;11.086;2022-12-18T13:20:08;29.23;;;14.97;;
1414;SDS011;702;49.466;11.086;2022-12-18T13:22:40;33.47;;;16.10;;
1414;SDS011;702;49.466;11.086;2022-12-18T13:28:09;31.80;;;16.07;;
1414;SDS011;702;49.466;11.086;2022-12-18T13:30:48;31.27;;;15.17;;
1414;SDS011;702;49.466;11.086;2022-12-18T13:36:33;39.57;;;17.57;;
1414;SDS011;702;49.466;11.086;2022-12-18T13:39:15;27.43;;;15.20;;
1414;SDS011;702;49.466;11.086;2022-12-18T13:45:37;25.23;;;14.87;;
1414;SDS011;702;49.466;11.086;2022-12-18T13:48:19;25.30;;;15.27;;
1414;SDS011;702;49.466;11.086;2022-12-18T13:50:53;30.00;;;17.17;;
1414;SDS011;702;49.466;11.086;2022-12-18T13:53:27;26.00;;;15.27;;
1414;SDS011;702;49.466;11.086;2022-12-18T13:55:58;27.47;;;16.20;;
1414;SDS011;702;49.466;11.086;2022-12-18T13:58:26;29.33;;;16.13;;
1414;SDS011;702;49.466;11.086;2022-12-18T14:00:54;22.67;;;14.07;;
1414;SDS011;702;49.466;11.086;2022-12-18T14:03:22;25.63;;;14.07;;
1414;SDS011;702;49.466;11.086;2022-12-18T14:05:56;26.50;;;15.37;;
1414;SDS011;702;49.466;11.086;2022-12-18T14:08:34;26.73;;;15.07;;
1414;SDS011;702;49.466;11.086;2022-12-18T14:11:05;24.77;;;14.30;;
1414;SDS011;702;49.466;11.086;2022-12-18T14:13:35;26.40;;;15.33;;
1414;SDS011;702;49.466;11.086;2022-12-18T14:16:06;21.53;;;12.00;;
1414;SDS011;702;49.466;11.086;2022-12-18T14:18:38;28.57;;;14.63;;
1414;SDS011;702;49.466;11.086;2022-12-18T14:21:20;28.17;;;15.33;;
1414;SDS011;702;49.466;11.086;2022-12-18T14:23:58;24.87;;;14.70;;
1414;SDS011;702;49.466;11.086;2022-12-18T14:26:32;26.63;;;16.50;;
1414;SDS011;702;49.466;11.086;2022-12-18T14:29:00;24.57;;;13.23;;
1414;SDS011;702;49.466;11.086;2022-12-18T14:31:45;30.17;;;16.50;;
1414;SDS011;702;49.466;11.086;2022-12-18T14:34:14;27.87;;;15.93;;
1414;SDS011;702;49.466;11.086;2022-12-18T14:36:44;24.60;;;14.60;;
1414;SDS011;702;49.466;11.086;2022-12-18T14:39:22;23.77;;;15.60;;
1414;SDS011;702;49.466;11.086;2022-12-18T14:41:50;29.60;;;17.60;;
1414;SDS011;702;49.466;11.086;2022-12-18T14:44:17;23.90;;;14.17;;
1414;SDS011;702;49.466;11.086;2022-12-18T14:46:46;29.47;;;15.80;;
1414;SDS011;702;49.466;11.086;2022-12-18T14:49:18;29.70;;;17.03;;
1414;SDS011;702;49.466;11.086;2022-12-18T14:51:52;26.07;;;14.40;;
1414;SDS011;702;49.466;11.086;2022-12-18T14:54:21;24.80;;;14.10;;
1414;SDS011;702;49.466;11.086;2022-12-18T14:56:51;26.70;;;16.10;;
1414;SDS011;702;49.466;11.086;2022-12-18T14:59:26;26.63;;;15.67;;
1414;SDS011;702;49.466;11.086;2022-12-18T15:01:57;30.70;;;17.40;;
1414;SDS011;702;49.466;11.086;2022-12-18T15:04:28;22.80;;;15.00;;
1414;SDS011;702;49.466;11.086;2022-12-18T15:07:04;27.23;;;15.87;;
1414;SDS011;702;49.466;11.086;2022-12-18T15:09:38;30.47;;;17.03;;
1414;SDS011;702;49.466;11.086;2022-12-18T15:12:17;30.30;;;15.83;;
1414;SDS011;702;49.466;11.086;2022-12-18T15:14:52;29.23;;;16.83;;
1414;SDS011;702;49.466;11.086;2022-12-18T15:17:21;23.50;;;15.27;;
1414;SDS011;702;49.466;11.086;2022-12-18T15:19:50;37.27;;;18.23;;
1414;SDS011;702;49.466;11.086;2022-12-18T15:22:21;35.40;;;16.93;;
1414;SDS011;702;49.466;11.086;2022-12-18T15:24:54;27.30;;;16.07;;
1414;SDS011;702;49.466;11.086;2022-12-18T15:27:25;28.10;;;17.50;;